sensor_id;sensor_type;location;lat;lon;timestamp;P1;durP1;ratioP1;P2;durP2;ratioP2
21814;SDS011;11069;48.988;8.450;2023-09-12T00:00:47;10.30;;;6.75;;
21814;SDS011;11069;48.988;8.450;2023-09-12T00:03:13;10.40;;;6.25;;
21814;SDS011;11069;48.988;8.450;2023-09-12T00:05:39;11.30;;;6.93;;
21814;SDS011;11069;48.988;8.450;2023-09-12T00:08:05;12.02;;;6.80;;
21814;SDS011;11069;48.988;8.450;2023-09-12T00:10:31;10.27;;;6.43;;
21814;SDS011;11069;48.988;8.450;2023-09-12T00:12:58;10.65;;;6.28;;
21814;SDS011;11069;48.988;8.450;2023-09-12T00:15:25;9.23;;;6.13;;
21814;SDS011;11069;48.988;8.450;2023-09-12T00:17:51;9.02;;;6.47;;
21814;SDS011;11069;48.988;8.450;2023-09-12T00:20:16;9.70;;;6.50;;
21814;SDS011;11069;48.988;8.450;2023-09-12T00:22:42;11.20;;;7.35;;
21814;SDS011;11069;48.988;8.450;2023-09-12T00:25:08;8.55;;;6.20;;
21814;SDS011;11069;48.988;8.450;2023-09-12T00:27:33;12.00;;;6.78;;
21814;SDS011;11069;48.988;8.450;2023-09-12T00:29:59;8.80;;;6.35;;
21814;SDS011;11069;48.988;8.450;2023-09-12T00:32:25;10.00;;;6.72;;
21814;SDS011;11069;48.988;8.450;2023-09-12T00:34:50;8.80;;;6.70;;
21814;SDS011;11069;48.988;8.450;2023-09-12T00:37:16;10.68;;;6.43;;
21814;SDS011;11069;48.988;8.450;2023-09-12T00:39:41;9.98;;;6.60;;
21814;SDS011;11069;48.988;8.450;2023-09-12T00:42:07;10.70;;;6.57;;
21814;SDS011;11069;48.988;8.450;2023-09-12T00:44:33;12.00;;;7.30;;
21814;SDS011;11069;48.988;8.450;2023-09-12T00:46:59;10.20;;;7.03;;
21814;SDS011;11069;48.988;8.450;2023-09-12T00:49:26;11.30;;;6.72;;
21814;SDS011;11069;48.988;8.450;2023-09-12T00:51:53;11.10;;;7.15;;
21814;SDS011;11069;48.988;8.450;2023-09-12T00:54:23;7.93;;;7.10;;
21814;SDS011;11069;48.988;8.450;2023-09-12T00:56:49;12.02;;;7.75;;
21814;SDS011;11069;48.988;8.450;2023-09-12T00:59:15;8.20;;;7.15;;
21814;SDS011;11069;48.988;8.450;2023-09-12T01:01:42;9.27;;;7.00;;
21814;SDS011;11069;48.988;8.450;2023-09-12T01:04:09;10.70;;;7.03;;
21814;SDS011;11069;48.988;8.450;2023-09-12T01:06:35;8.05;;;6.65;;
21814;SDS011;11069;48.988;8.450;2023-09-12T01:09:02;10.80;;;7.03;;
21814;SDS011;11069;48.988;8.450;2023-09-12T01:11:28;10.02;;;7.35;;
21814;SDS011;11069;48.988;8.450;2023-09-12T01:13:53;8.15;;;7.13;;
21814;SDS011;11069;48.988;8.450;2023-09-12T01:16:19;11.13;;;7.70;;
21814;SDS011;11069;48.988;8.450;2023-09-12T01:18:45;9.80;;;7.90;;
21814;SDS011;11069;48.988;8.450;2023-09-12T01:26:41;10.45;;;8.18;;
21814;SDS011;11069;48.988;8.450;2023-09-12T01:29:16;10.27;;;7.88;;
21814;SDS011;11069;48.988;8.450;2023-09-12T01:31:45;11.88;;;7.85;;
21814;SDS011;11069;48.988;8.450;2023-09-12T01:34:12;9.85;;;7.85;;
21814;SDS011;11069;48.988;8.450;2023-09-12T01:36:39;12.70;;;8.20;;
21814;SDS011;11069;48.988;8.450;2023-09-12T01:39:04;13.90;;;8.40;;
21814;SDS011;11069;48.988;8.450;2023-09-12T01:41:31;10.68;;;7.97;;
21814;SDS011;11069;48.988;8.450;2023-09-12T01:43:59;11.07;;;8.02;;
21814;SDS011;11069;48.988;8.450;2023-09-12T01:46:26;11.57;;;7.93;;
21814;SDS011;11069;48.988;8.450;2023-09-12T01:48:53;12.57;;;8.43;;
21814;SDS011;11069;48.988;8.450;2023-09-12T01:51:21;12.60;;;8.98;;
21814;SDS011;11069;48.988;8.450;2023-09-12T01:53:49;11.75;;;8.40;;
21814;SDS011;11069;48.988;8.450;2023-09-12T01:56:17;10.45;;;7.90;;
21814;SDS011;11069;48.988;8.450;2023-09-12T01:58:44;10.90;;;8.43;;
21814;SDS011;11069;48.988;8.450;2023-09-12T02:01:10;11.88;;;8.88;;
21814;SDS011;11069;48.988;8.450;2023-09-12T02:03:36;12.65;;;8.15;;
21814;SDS011;11069;48.988;8.450;2023-09-12T02:06:02;10.77;;;8.38;;
21814;SDS011;11069;48.988;8.450;2023-09-12T02:08:27;10.38;;;8.73;;
21814;SDS011;11069;48.988;8.450;2023-09-12T02:10:53;10.50;;;8.05;;
21814;SDS011;11069;48.988;8.450;2023-09-12T02:13:19;12.80;;;9.23;;
21814;SDS011;11069;48.988;8.450;2023-09-12T02:15:45;15.18;;;8.70;;
21814;SDS011;11069;48.988;8.450;2023-09-12T02:18:10;13.50;;;9.35;;
21814;SDS011;11069;48.988;8.450;2023-09-12T02:20:38;12.13;;;8.50;;
21814;SDS011;11069;48.988;8.450;2023-09-12T02:23:05;12.57;;;8.25;;
21814;SDS011;11069;48.988;8.450;2023-09-12T02:25:31;14.15;;;8.75;;
21814;SDS011;11069;48.988;8.450;2023-09-12T02:27:56;10.77;;;8.60;;
21814;SDS011;11069;48.988;8.450;2023-09-12T02:30:22;11.65;;;8.95;;
21814;SDS011;11069;48.988;8.450;2023-09-12T02:32:47;9.90;;;8.90;;
21814;SDS011;11069;48.988;8.450;2023-09-12T02:35:13;13.18;;;9.20;;
21814;SDS011;11069;48.988;8.450;2023-09-12T02:37:39;10.38;;;8.68;;
21814;SDS011;11069;48.988;8.450;2023-09-12T02:40:04;11.07;;;8.65;;
21814;SDS011;11069;48.988;8.450;2023-09-12T02:42:31;13.20;;;8.52;;
21814;SDS011;11069;48.988;8.450;2023-09-12T02:44:56;11.75;;;8.75;;
21814;SDS011;11069;48.988;8.450;2023-09-12T02:47:22;9.73;;;8.18;;
21814;SDS011;11069;48.988;8.450;2023-09-12T02:49:47;12.43;;;8.80;;
21814;SDS011;11069;48.988;8.450;2023-09-12T02:52:13;12.82;;;8.98;;
21814;SDS011;11069;48.988;8.450;2023-09-12T02:54:39;10.95;;;9.63;;
21814;SDS011;11069;48.988;8.450;2023-09-12T02:57:04;12.20;;;9.20;;
21814;SDS011;11069;48.988;8.450;2023-09-12T02:59:30;10.88;;;9.27;;
21814;SDS011;11069;48.988;8.450;2023-09-12T03:01:55;12.25;;;8.90;;
21814;SDS011;11069;48.988;8.450;2023-09-12T03:04:27;12.38;;;9.82;;
21814;SDS011;11069;48.988;8.450;2023-09-12T03:06:53;10.25;;;8.95;;
21814;SDS011;11069;48.988;8.450;2023-09-12T03:09:19;10.63;;;8.63;;
21814;SDS011;11069;48.988;8.450;2023-09-12T03:11:44;11.40;;;8.88;;
21814;SDS011;11069;48.988;8.450;2023-09-12T03:14:10;12.93;;;9.60;;
21814;SDS011;11069;48.988;8.450;2023-09-12T03:16:36;10.90;;;8.70;;
21814;SDS011;11069;48.988;8.450;2023-09-12T03:19:02;12.10;;;8.93;;
21814;SDS011;11069;48.988;8.450;2023-09-12T03:21:28;11.00;;;8.95;;
21814;SDS011;11069;48.988;8.450;2023-09-12T03:23:54;10.98;;;9.43;;
21814;SDS011;11069;48.988;8.450;2023-09-12T03:26:19;11.90;;;9.13;;
21814;SDS011;11069;48.988;8.450;2023-09-12T03:28:45;12.43;;;8.90;;
21814;SDS011;11069;48.988;8.450;2023-09-12T03:31:12;12.40;;;9.30;;
21814;SDS011;11069;48.988;8.450;2023-09-12T03:33:39;12.48;;;9.38;;
21814;SDS011;11069;48.988;8.450;2023-09-12T03:36:14;14.27;;;9.55;;
21814;SDS011;11069;48.988;8.450;2023-09-12T03:38:40;12.43;;;9.25;;
21814;SDS011;11069;48.988;8.450;2023-09-12T03:41:05;12.25;;;8.63;;
21814;SDS011;11069;48.988;8.450;2023-09-12T03:43:32;11.38;;;8.85;;
21814;SDS011;11069;48.988;8.450;2023-09-12T03:45:58;10.05;;;8.52;;
21814;SDS011;11069;48.988;8.450;2023-09-12T03:48:24;13.35;;;9.73;;
21814;SDS011;11069;48.988;8.450;2023-09-12T03:50:50;11.27;;;9.13;;
21814;SDS011;11069;48.988;8.450;2023-09-12T03:53:15;12.70;;;9.18;;
21814;SDS011;11069;48.988;8.450;2023-09-12T03:55:41;14.82;;;9.63;;
21814;SDS011;11069;48.988;8.450;2023-09-12T03:58:07;11.50;;;9.52;;
21814;SDS011;11069;48.988;8.450;2023-09-12T04:00:33;11.05;;;9.65;;
21814;SDS011;11069;48.988;8.450;2023-09-12T04:02:58;11.13;;;8.85;;
21814;SDS011;11069;48.988;8.450;2023-09-12T04:05:25;12.13;;;9.18;;
21814;SDS011;11069;48.988;8.450;2023-09-12T04:07:51;15.80;;;9.52;;
21814;SDS011;11069;48.988;8.450;2023-09-12T04:10:17;12.32;;;9.18;;
21814;SDS011;11069;48.988;8.450;2023-09-12T04:12:44;12.65;;;9.38;;
21814;SDS011;11069;48.988;8.450;2023-09-12T04:15:10;14.95;;;9.77;;
21814;SDS011;11069;48.988;8.450;2023-09-12T04:17:36;13.85;;;9.40;;
21814;SDS011;11069;48.988;8.450;2023-09-12T04:20:01;11.68;;;9.60;;
21814;SDS011;11069;48.988;8.450;2023-09-12T04:22:27;12.07;;;8.88;;
21814;SDS011;11069;48.988;8.450;2023-09-12T04:24:53;16.52;;;9.15;;
21814;SDS011;11069;48.988;8.450;2023-09-12T04:27:19;12.38;;;9.00;;
21814;SDS011;11069;48.988;8.450;2023-09-12T04:29:45;12.40;;;9.55;;
21814;SDS011;11069;48.988;8.450;2023-09-12T04:32:10;11.13;;;9.07;;
21814;SDS011;11069;48.988;8.450;2023-09-12T04:34:36;14.57;;;9.60;;
21814;SDS011;11069;48.988;8.450;2023-09-12T04:37:02;11.48;;;8.73;;
21814;SDS011;11069;48.988;8.450;2023-09-12T04:39:28;11.80;;;8.75;;
21814;SDS011;11069;48.988;8.450;2023-09-12T04:41:55;12.10;;;9.63;;
21814;SDS011;11069;48.988;8.450;2023-09-12T04:44:20;13.85;;;10.07;;
21814;SDS011;11069;48.988;8.450;2023-09-12T04:46:46;13.23;;;9.25;;
21814;SDS011;11069;48.988;8.450;2023-09-12T04:49:12;11.73;;;9.70;;
21814;SDS011;11069;48.988;8.450;2023-09-12T04:51:37;13.75;;;9.05;;
21814;SDS011;11069;48.988;8.450;2023-09-12T04:54:03;13.45;;;9.25;;
21814;SDS011;11069;48.988;8.450;2023-09-12T04:56:29;14.15;;;9.23;;
21814;SDS011;11069;48.988;8.450;2023-09-12T04:58:55;14.68;;;8.45;;
21814;SDS011;11069;48.988;8.450;2023-09-12T05:01:20;12.88;;;9.05;;
21814;SDS011;11069;48.988;8.450;2023-09-12T05:03:46;11.73;;;8.88;;
21814;SDS011;11069;48.988;8.450;2023-09-12T05:06:12;10.80;;;8.95;;
21814;SDS011;11069;48.988;8.450;2023-09-12T05:08:38;13.82;;;9.45;;
21814;SDS011;11069;48.988;8.450;2023-09-12T05:11:04;10.98;;;8.60;;
21814;SDS011;11069;48.988;8.450;2023-09-12T05:13:29;11.73;;;8.65;;
21814;SDS011;11069;48.988;8.450;2023-09-12T05:15:55;9.93;;;8.57;;
21814;SDS011;11069;48.988;8.450;2023-09-12T05:18:22;11.90;;;9.15;;
21814;SDS011;11069;48.988;8.450;2023-09-12T05:20:48;15.52;;;9.30;;
21814;SDS011;11069;48.988;8.450;2023-09-12T05:23:14;12.25;;;9.02;;
21814;SDS011;11069;48.988;8.450;2023-09-12T05:25:40;11.93;;;9.27;;
21814;SDS011;11069;48.988;8.450;2023-09-12T05:28:06;14.45;;;9.07;;
21814;SDS011;11069;48.988;8.450;2023-09-12T05:30:34;13.82;;;9.88;;
21814;SDS011;11069;48.988;8.450;2023-09-12T05:33:00;17.80;;;9.60;;
21814;SDS011;11069;48.988;8.450;2023-09-12T05:35:26;14.00;;;9.30;;
21814;SDS011;11069;48.988;8.450;2023-09-12T05:37:54;14.45;;;9.55;;
21814;SDS011;11069;48.988;8.450;2023-09-12T05:40:20;13.40;;;9.80;;
21814;SDS011;11069;48.988;8.450;2023-09-12T05:42:46;14.07;;;10.23;;
21814;SDS011;11069;48.988;8.450;2023-09-12T05:45:12;14.00;;;10.60;;
21814;SDS011;11069;48.988;8.450;2023-09-12T05:47:39;15.55;;;11.45;;
21814;SDS011;11069;48.988;8.450;2023-09-12T05:50:05;12.85;;;10.82;;
21814;SDS011;11069;48.988;8.450;2023-09-12T05:52:32;21.75;;;11.55;;
21814;SDS011;11069;48.988;8.450;2023-09-12T05:54:58;13.38;;;10.68;;
21814;SDS011;11069;48.988;8.450;2023-09-12T05:57:26;13.32;;;11.13;;
21814;SDS011;11069;48.988;8.450;2023-09-12T05:59:52;14.40;;;11.23;;
21814;SDS011;11069;48.988;8.450;2023-09-12T06:02:18;15.27;;;10.27;;
21814;SDS011;11069;48.988;8.450;2023-09-12T06:04:43;13.80;;;10.43;;
21814;SDS011;11069;48.988;8.450;2023-09-12T06:07:09;17.38;;;10.93;;
21814;SDS011;11069;48.988;8.450;2023-09-12T06:09:36;16.50;;;11.07;;
21814;SDS011;11069;48.988;8.450;2023-09-12T06:12:01;15.95;;;10.77;;
21814;SDS011;11069;48.988;8.450;2023-09-12T06:14:27;14.93;;;11.30;;
21814;SDS011;11069;48.988;8.450;2023-09-12T06:16:53;18.83;;;11.32;;
21814;SDS011;11069;48.988;8.450;2023-09-12T06:19:18;16.23;;;10.98;;
21814;SDS011;11069;48.988;8.450;2023-09-12T06:21:44;13.20;;;10.90;;
21814;SDS011;11069;48.988;8.450;2023-09-12T06:24:11;15.70;;;10.45;;
21814;SDS011;11069;48.988;8.450;2023-09-12T06:26:39;12.98;;;11.23;;
21814;SDS011;11069;48.988;8.450;2023-09-12T06:29:05;11.93;;;10.25;;
21814;SDS011;11069;48.988;8.450;2023-09-12T06:31:30;14.02;;;10.48;;
21814;SDS011;11069;48.988;8.450;2023-09-12T06:33:56;12.88;;;10.13;;
21814;SDS011;11069;48.988;8.450;2023-09-12T06:36:26;13.80;;;10.40;;
21814;SDS011;11069;48.988;8.450;2023-09-12T06:38:54;15.15;;;9.98;;
21814;SDS011;11069;48.988;8.450;2023-09-12T06:41:20;16.73;;;10.70;;
21814;SDS011;11069;48.988;8.450;2023-09-12T06:43:46;17.33;;;10.27;;
21814;SDS011;11069;48.988;8.450;2023-09-12T06:46:12;15.68;;;9.77;;
21814;SDS011;11069;48.988;8.450;2023-09-12T06:48:37;12.43;;;9.73;;
21814;SDS011;11069;48.988;8.450;2023-09-12T06:51:08;14.18;;;11.35;;
21814;SDS011;11069;48.988;8.450;2023-09-12T06:56:01;19.42;;;10.52;;
21814;SDS011;11069;48.988;8.450;2023-09-12T06:58:30;15.68;;;11.23;;
21814;SDS011;11069;48.988;8.450;2023-09-12T07:00:56;16.92;;;10.10;;
21814;SDS011;11069;48.988;8.450;2023-09-12T07:03:30;14.80;;;9.95;;
21814;SDS011;11069;48.988;8.450;2023-09-12T07:06:00;15.23;;;10.10;;
21814;SDS011;11069;48.988;8.450;2023-09-12T07:08:26;12.73;;;9.95;;
21814;SDS011;11069;48.988;8.450;2023-09-12T07:10:53;12.10;;;9.38;;
21814;SDS011;11069;48.988;8.450;2023-09-12T07:13:20;12.98;;;10.15;;
21814;SDS011;11069;48.988;8.450;2023-09-12T07:15:46;13.85;;;9.48;;
21814;SDS011;11069;48.988;8.450;2023-09-12T07:18:12;15.25;;;9.10;;
21814;SDS011;11069;48.988;8.450;2023-09-12T07:20:40;10.82;;;9.27;;
21814;SDS011;11069;48.988;8.450;2023-09-12T07:23:06;14.70;;;9.75;;
21814;SDS011;11069;48.988;8.450;2023-09-12T07:25:41;12.02;;;9.68;;
21814;SDS011;11069;48.988;8.450;2023-09-12T07:28:07;15.77;;;9.38;;
21814;SDS011;11069;48.988;8.450;2023-09-12T07:30:33;12.48;;;8.73;;
21814;SDS011;11069;48.988;8.450;2023-09-12T07:32:59;14.05;;;9.30;;
21814;SDS011;11069;48.988;8.450;2023-09-12T07:35:25;15.32;;;9.70;;
21814;SDS011;11069;48.988;8.450;2023-09-12T07:37:50;12.77;;;8.73;;
21814;SDS011;11069;48.988;8.450;2023-09-12T07:40:16;10.88;;;8.73;;
21814;SDS011;11069;48.988;8.450;2023-09-12T07:42:42;15.55;;;9.07;;
21814;SDS011;11069;48.988;8.450;2023-09-12T07:45:08;14.23;;;9.15;;
21814;SDS011;11069;48.988;8.450;2023-09-12T07:47:34;10.93;;;8.77;;
21814;SDS011;11069;48.988;8.450;2023-09-12T07:50:00;16.05;;;9.50;;
21814;SDS011;11069;48.988;8.450;2023-09-12T07:52:26;14.02;;;8.63;;
21814;SDS011;11069;48.988;8.450;2023-09-12T07:54:52;12.18;;;8.23;;
21814;SDS011;11069;48.988;8.450;2023-09-12T07:57:23;12.10;;;8.65;;
21814;SDS011;11069;48.988;8.450;2023-09-12T07:59:49;11.82;;;8.38;;
21814;SDS011;11069;48.988;8.450;2023-09-12T08:02:14;13.52;;;8.60;;
21814;SDS011;11069;48.988;8.450;2023-09-12T08:04:40;15.75;;;9.13;;
21814;SDS011;11069;48.988;8.450;2023-09-12T08:07:06;14.00;;;9.10;;
21814;SDS011;11069;48.988;8.450;2023-09-12T08:09:48;13.45;;;8.20;;
21814;SDS011;11069;48.988;8.450;2023-09-12T08:12:16;13.45;;;8.48;;
21814;SDS011;11069;48.988;8.450;2023-09-12T08:14:43;14.98;;;8.40;;
21814;SDS011;11069;48.988;8.450;2023-09-12T08:17:10;12.63;;;8.07;;
21814;SDS011;11069;48.988;8.450;2023-09-12T08:19:39;10.25;;;7.57;;
21814;SDS011;11069;48.988;8.450;2023-09-12T08:22:08;10.90;;;8.10;;
21814;SDS011;11069;48.988;8.450;2023-09-12T08:24:35;13.43;;;7.75;;
21814;SDS011;11069;48.988;8.450;2023-09-12T08:27:02;10.70;;;7.43;;
21814;SDS011;11069;48.988;8.450;2023-09-12T08:29:29;10.18;;;7.57;;
21814;SDS011;11069;48.988;8.450;2023-09-12T08:31:55;9.93;;;7.85;;
21814;SDS011;11069;48.988;8.450;2023-09-12T08:34:21;10.98;;;7.30;;
21814;SDS011;11069;48.988;8.450;2023-09-12T08:36:47;10.55;;;7.97;;
21814;SDS011;11069;48.988;8.450;2023-09-12T08:39:16;17.42;;;7.57;;
21814;SDS011;11069;48.988;8.450;2023-09-12T08:44:11;11.57;;;8.18;;
21814;SDS011;11069;48.988;8.450;2023-09-12T08:46:37;9.93;;;8.10;;
21814;SDS011;11069;48.988;8.450;2023-09-12T08:49:05;13.45;;;8.38;;
21814;SDS011;11069;48.988;8.450;2023-09-12T08:51:32;13.23;;;7.88;;
21814;SDS011;11069;48.988;8.450;2023-09-12T08:53:58;12.45;;;8.50;;
21814;SDS011;11069;48.988;8.450;2023-09-12T08:56:24;11.07;;;8.40;;
21814;SDS011;11069;48.988;8.450;2023-09-12T08:58:50;11.90;;;8.45;;
21814;SDS011;11069;48.988;8.450;2023-09-12T09:01:18;15.52;;;8.50;;
21814;SDS011;11069;48.988;8.450;2023-09-12T09:03:44;12.95;;;8.07;;
21814;SDS011;11069;48.988;8.450;2023-09-12T09:06:11;14.27;;;8.57;;
21814;SDS011;11069;48.988;8.450;2023-09-12T09:08:37;13.07;;;8.65;;
21814;SDS011;11069;48.988;8.450;2023-09-12T09:11:04;12.68;;;8.73;;
21814;SDS011;11069;48.988;8.450;2023-09-12T09:13:33;11.27;;;8.07;;
21814;SDS011;11069;48.988;8.450;2023-09-12T09:16:11;13.55;;;9.05;;
21814;SDS011;11069;48.988;8.450;2023-09-12T09:21:29;11.73;;;8.57;;
21814;SDS011;11069;48.988;8.450;2023-09-12T09:23:57;13.48;;;8.77;;
21814;SDS011;11069;48.988;8.450;2023-09-12T09:26:25;11.25;;;8.27;;
21814;SDS011;11069;48.988;8.450;2023-09-12T09:29:03;14.38;;;8.57;;
21814;SDS011;11069;48.988;8.450;2023-09-12T09:31:31;12.32;;;8.55;;
21814;SDS011;11069;48.988;8.450;2023-09-12T09:37:19;12.30;;;8.50;;
21814;SDS011;11069;48.988;8.450;2023-09-12T09:49:45;10.20;;;8.32;;
21814;SDS011;11069;48.988;8.450;2023-09-12T09:52:11;11.93;;;8.50;;
21814;SDS011;11069;48.988;8.450;2023-09-12T09:54:42;12.32;;;8.27;;
21814;SDS011;11069;48.988;8.450;2023-09-12T09:57:09;10.77;;;8.18;;
21814;SDS011;11069;48.988;8.450;2023-09-12T09:59:35;13.32;;;8.52;;
21814;SDS011;11069;48.988;8.450;2023-09-12T10:02:00;14.05;;;8.55;;
21814;SDS011;11069;48.988;8.450;2023-09-12T10:04:28;12.82;;;8.38;;
21814;SDS011;11069;48.988;8.450;2023-09-12T10:06:56;9.50;;;7.82;;
21814;SDS011;11069;48.988;8.450;2023-09-12T10:09:25;13.52;;;9.20;;
21814;SDS011;11069;48.988;8.450;2023-09-12T10:11:52;14.30;;;8.02;;
21814;SDS011;11069;48.988;8.450;2023-09-12T10:14:20;11.98;;;7.50;;
21814;SDS011;11069;48.988;8.450;2023-09-12T10:16:47;8.95;;;7.50;;
21814;SDS011;11069;48.988;8.450;2023-09-12T10:19:18;9.88;;;8.07;;
21814;SDS011;11069;48.988;8.450;2023-09-12T10:21:49;9.57;;;8.10;;
21814;SDS011;11069;48.988;8.450;2023-09-12T10:24:39;11.25;;;8.05;;
21814;SDS011;11069;48.988;8.450;2023-09-12T10:27:05;12.50;;;8.05;;
21814;SDS011;11069;48.988;8.450;2023-09-12T10:29:32;11.23;;;8.43;;
21814;SDS011;11069;48.988;8.450;2023-09-12T10:31:58;8.85;;;7.35;;
21814;SDS011;11069;48.988;8.450;2023-09-12T10:34:25;10.10;;;7.88;;
21814;SDS011;11069;48.988;8.450;2023-09-12T10:36:52;11.75;;;8.15;;
21814;SDS011;11069;48.988;8.450;2023-09-12T10:39:20;11.85;;;8.23;;
21814;SDS011;11069;48.988;8.450;2023-09-12T10:41:47;10.93;;;7.93;;
21814;SDS011;11069;48.988;8.450;2023-09-12T10:44:16;9.23;;;8.00;;
21814;SDS011;11069;48.988;8.450;2023-09-12T10:46:43;10.82;;;7.68;;
21814;SDS011;11069;48.988;8.450;2023-09-12T10:49:11;8.90;;;7.30;;
21814;SDS011;11069;48.988;8.450;2023-09-12T10:51:38;9.13;;;7.68;;
21814;SDS011;11069;48.988;8.450;2023-09-12T10:54:09;10.40;;;7.85;;
21814;SDS011;11069;48.988;8.450;2023-09-12T10:56:39;11.30;;;7.97;;
21814;SDS011;11069;48.988;8.450;2023-09-12T11:01:38;10.55;;;7.85;;
21814;SDS011;11069;48.988;8.450;2023-09-12T11:06:43;13.10;;;7.82;;
21814;SDS011;11069;48.988;8.450;2023-09-12T11:09:22;9.63;;;7.18;;
21814;SDS011;11069;48.988;8.450;2023-09-12T11:11:57;10.27;;;7.88;;
21814;SDS011;11069;48.988;8.450;2023-09-12T11:14:24;11.23;;;7.90;;
21814;SDS011;11069;48.988;8.450;2023-09-12T11:19:51;10.88;;;7.68;;
21814;SDS011;11069;48.988;8.450;2023-09-12T11:22:30;11.32;;;7.47;;
21814;SDS011;11069;48.988;8.450;2023-09-12T11:24:57;9.43;;;7.80;;
21814;SDS011;11069;48.988;8.450;2023-09-12T11:30:15;10.00;;;7.38;;
21814;SDS011;11069;48.988;8.450;2023-09-12T11:32:46;13.00;;;8.32;;
21814;SDS011;11069;48.988;8.450;2023-09-12T11:35:13;8.60;;;7.63;;
21814;SDS011;11069;48.988;8.450;2023-09-12T11:37:40;9.00;;;7.13;;
21814;SDS011;11069;48.988;8.450;2023-09-12T11:40:22;10.32;;;6.93;;
21814;SDS011;11069;48.988;8.450;2023-09-12T11:42:50;13.20;;;7.57;;
21814;SDS011;11069;48.988;8.450;2023-09-12T11:45:21;11.30;;;7.22;;
21814;SDS011;11069;48.988;8.450;2023-09-12T11:47:47;12.70;;;7.53;;
21814;SDS011;11069;48.988;8.450;2023-09-12T11:50:33;10.13;;;7.25;;
21814;SDS011;11069;48.988;8.450;2023-09-12T11:55:34;10.85;;;6.95;;
21814;SDS011;11069;48.988;8.450;2023-09-12T11:58:08;9.50;;;6.65;;
21814;SDS011;11069;48.988;8.450;2023-09-12T12:00:36;9.55;;;6.40;;
21814;SDS011;11069;48.988;8.450;2023-09-12T12:03:02;8.32;;;7.03;;
21814;SDS011;11069;48.988;8.450;2023-09-12T12:05:29;9.45;;;6.90;;
21814;SDS011;11069;48.988;8.450;2023-09-12T12:07:55;10.23;;;6.80;;
21814;SDS011;11069;48.988;8.450;2023-09-12T12:10:23;11.20;;;6.88;;
21814;SDS011;11069;48.988;8.450;2023-09-12T12:12:52;7.10;;;6.38;;
21814;SDS011;11069;48.988;8.450;2023-09-12T12:15:18;7.15;;;6.45;;
21814;SDS011;11069;48.988;8.450;2023-09-12T12:17:44;7.00;;;5.38;;
21814;SDS011;11069;48.988;8.450;2023-09-12T12:20:10;7.65;;;5.88;;
21814;SDS011;11069;48.988;8.450;2023-09-12T12:22:40;7.90;;;5.75;;
21814;SDS011;11069;48.988;8.450;2023-09-12T12:25:06;6.28;;;5.68;;
21814;SDS011;11069;48.988;8.450;2023-09-12T12:27:37;6.70;;;5.95;;
21814;SDS011;11069;48.988;8.450;2023-09-12T12:30:05;9.18;;;6.20;;
21814;SDS011;11069;48.988;8.450;2023-09-12T12:32:45;9.88;;;6.15;;
21814;SDS011;11069;48.988;8.450;2023-09-12T12:35:20;8.45;;;6.05;;
21814;SDS011;11069;48.988;8.450;2023-09-12T12:37:48;8.38;;;5.90;;
21814;SDS011;11069;48.988;8.450;2023-09-12T12:40:19;10.45;;;5.47;;
21814;SDS011;11069;48.988;8.450;2023-09-12T12:42:44;7.05;;;6.32;;
21814;SDS011;11069;48.988;8.450;2023-09-12T12:45:15;7.13;;;5.57;;
21814;SDS011;11069;48.988;8.450;2023-09-12T12:47:42;6.35;;;5.57;;
21814;SDS011;11069;48.988;8.450;2023-09-12T12:50:13;8.65;;;5.70;;
21814;SDS011;11069;48.988;8.450;2023-09-12T12:52:40;9.93;;;6.35;;
21814;SDS011;11069;48.988;8.450;2023-09-12T12:55:07;6.65;;;5.43;;
21814;SDS011;11069;48.988;8.450;2023-09-12T12:57:40;11.65;;;5.78;;
21814;SDS011;11069;48.988;8.450;2023-09-12T13:00:11;7.80;;;5.95;;
21814;SDS011;11069;48.988;8.450;2023-09-12T13:02:40;6.57;;;5.78;;
21814;SDS011;11069;48.988;8.450;2023-09-12T13:07:53;6.63;;;5.65;;
21814;SDS011;11069;48.988;8.450;2023-09-12T13:10:19;10.20;;;5.40;;
21814;SDS011;11069;48.988;8.450;2023-09-12T13:12:45;7.80;;;5.63;;
21814;SDS011;11069;48.988;8.450;2023-09-12T13:15:12;7.82;;;5.35;;
21814;SDS011;11069;48.988;8.450;2023-09-12T13:17:39;9.07;;;6.00;;
21814;SDS011;11069;48.988;8.450;2023-09-12T13:20:07;9.48;;;5.80;;
21814;SDS011;11069;48.988;8.450;2023-09-12T13:22:34;7.05;;;5.82;;
21814;SDS011;11069;48.988;8.450;2023-09-12T13:25:00;6.55;;;5.78;;
21814;SDS011;11069;48.988;8.450;2023-09-12T13:27:26;8.13;;;5.82;;
21814;SDS011;11069;48.988;8.450;2023-09-12T13:29:51;7.03;;;5.97;;
21814;SDS011;11069;48.988;8.450;2023-09-12T13:32:17;7.85;;;6.38;;
21814;SDS011;11069;48.988;8.450;2023-09-12T13:34:43;6.65;;;5.47;;
21814;SDS011;11069;48.988;8.450;2023-09-12T13:37:12;6.93;;;5.35;;
21814;SDS011;11069;48.988;8.450;2023-09-12T13:39:37;7.47;;;5.50;;
21814;SDS011;11069;48.988;8.450;2023-09-12T13:42:05;6.95;;;5.03;;
21814;SDS011;11069;48.988;8.450;2023-09-12T13:44:33;5.53;;;4.90;;
21814;SDS011;11069;48.988;8.450;2023-09-12T13:46:59;7.28;;;5.88;;
21814;SDS011;11069;48.988;8.450;2023-09-12T13:49:24;5.95;;;4.85;;
21814;SDS011;11069;48.988;8.450;2023-09-12T13:51:50;11.23;;;5.30;;
21814;SDS011;11069;48.988;8.450;2023-09-12T13:54:16;7.45;;;5.25;;
21814;SDS011;11069;48.988;8.450;2023-09-12T13:56:41;5.78;;;5.20;;
21814;SDS011;11069;48.988;8.450;2023-09-12T13:59:07;8.13;;;5.28;;
21814;SDS011;11069;48.988;8.450;2023-09-12T14:01:33;9.32;;;5.45;;
21814;SDS011;11069;48.988;8.450;2023-09-12T14:03:59;7.30;;;5.68;;
21814;SDS011;11069;48.988;8.450;2023-09-12T14:06:24;9.30;;;5.50;;
21814;SDS011;11069;48.988;8.450;2023-09-12T14:08:51;8.07;;;5.07;;
21814;SDS011;11069;48.988;8.450;2023-09-12T14:11:17;7.68;;;5.45;;
21814;SDS011;11069;48.988;8.450;2023-09-12T14:13:43;5.68;;;5.07;;
21814;SDS011;11069;48.988;8.450;2023-09-12T14:16:08;6.10;;;5.25;;
21814;SDS011;11069;48.988;8.450;2023-09-12T14:18:34;7.03;;;4.80;;
21814;SDS011;11069;48.988;8.450;2023-09-12T14:21:00;6.47;;;5.35;;
21814;SDS011;11069;48.988;8.450;2023-09-12T14:23:25;11.45;;;5.53;;
21814;SDS011;11069;48.988;8.450;2023-09-12T14:25:51;5.95;;;5.35;;
21814;SDS011;11069;48.988;8.450;2023-09-12T14:28:17;5.88;;;5.00;;
21814;SDS011;11069;48.988;8.450;2023-09-12T14:30:43;5.68;;;4.97;;
21814;SDS011;11069;48.988;8.450;2023-09-12T14:33:13;5.90;;;5.25;;
21814;SDS011;11069;48.988;8.450;2023-09-12T14:35:39;6.30;;;5.45;;
21814;SDS011;11069;48.988;8.450;2023-09-12T14:38:06;10.52;;;5.30;;
21814;SDS011;11069;48.988;8.450;2023-09-12T14:40:32;6.45;;;5.32;;
21814;SDS011;11069;48.988;8.450;2023-09-12T14:42:59;5.93;;;5.32;;
21814;SDS011;11069;48.988;8.450;2023-09-12T14:45:27;6.43;;;4.97;;
21814;SDS011;11069;48.988;8.450;2023-09-12T14:47:56;10.23;;;5.22;;
21814;SDS011;11069;48.988;8.450;2023-09-12T14:50:22;13.20;;;5.35;;
21814;SDS011;11069;48.988;8.450;2023-09-12T14:52:49;7.40;;;5.40;;
21814;SDS011;11069;48.988;8.450;2023-09-12T14:55:15;7.70;;;4.80;;
21814;SDS011;11069;48.988;8.450;2023-09-12T14:57:41;5.68;;;4.55;;
21814;SDS011;11069;48.988;8.450;2023-09-12T15:00:07;7.50;;;5.13;;
21814;SDS011;11069;48.988;8.450;2023-09-12T15:02:33;11.27;;;5.18;;
21814;SDS011;11069;48.988;8.450;2023-09-12T15:04:59;9.38;;;4.65;;
21814;SDS011;11069;48.988;8.450;2023-09-12T15:07:27;5.95;;;4.70;;
21814;SDS011;11069;48.988;8.450;2023-09-12T15:09:54;7.32;;;5.25;;
21814;SDS011;11069;48.988;8.450;2023-09-12T15:12:23;7.47;;;4.70;;
21814;SDS011;11069;48.988;8.450;2023-09-12T15:14:49;5.55;;;4.82;;
21814;SDS011;11069;48.988;8.450;2023-09-12T15:17:16;6.78;;;4.95;;
21814;SDS011;11069;48.988;8.450;2023-09-12T15:19:44;5.13;;;4.53;;